Nearby METAR Reports

 

KSJC - San Jose, California, USA
Distance from station: NE 9mi, 14km
Updated: Mon, 20-Aug-2018 5:16am CDT
Mostly cloudy
Mostly cloudy
 Wind from calm
Wind: Calm
Temperature: 57°F , 14°C
Dew Point: 55°F , 13°C
Humidity: 94%
Barometer: 29.88 inHg , 1011.9 hPa
Clouds: Mostly cloudy
Visibility: 7 miles , 11 km
Cloud details: Mostly cloudy 1000 ft
2018/08/20 10:16 KSJC 201016Z AUTO 00000KT 7SM BKN010 14/13 A2988 RMK AO2 T01440128
KNUQ - Moffett Nas/Mtn, California, USA
Distance from station: N 9mi, 14km
Updated: Mon, 20-Aug-2018 4:56am CDT
Mist, Overcast
Mist, Overcast
 Wind from ENE
Wind: ENE 3 mph , 6 km/h
Temperature: 59°F , 15°C
Dew Point: 57°F , 14°C
Humidity: 94%
Barometer: 29.88 inHg , 1011.9 hPa
Summary: Mist
Clouds: Overcast
Visibility: 6 miles , 10 km
Cloud details: Overcast 900 ft
2018/08/20 09:56 KNUQ 200956Z 06003KT 6SM BR OVC009 15/14 A2988 RMK AO2 SLP121 T01500139 $
 
KPAO - Palo Alto, California, USA
Distance from station: NNW 14mi, 23km
Updated: Sun, 19-Aug-2018 10:47pm CDT
NOT Current

 
Visibility: 2 miles , 3 km
2018/08/20 03:47 KPAO 200347Z 3405KT 10SM SCT180 16/15 A2990 RMK LAST
KRHV - San Jose/Reid, California, USA
Distance from station: ENE 12mi, 19km
Updated: Sun, 19-Aug-2018 11:50pm CDT
NOT Current
Clear
Clear
 Wind from W
Wind: W 5 mph , 7 km/h
Temperature: 64°F , 18°C
Dew Point: 57°F , 14°C
Humidity: 78%
Barometer: 29.89 inHg , 1012.2 hPa
Clouds: Clear
Visibility: 10 miles , 16 km
2018/08/20 04:50 KRHV 200450Z 28004KT 10SM SKC 18/14 A2989 RMK LAST
 
KOAK - Oakland, California, USA
Distance from station: NNW 31mi, 50km
Updated: Mon, 20-Aug-2018 4:53am CDT
Mist, Overcast
Mist, Overcast
 Wind from NE
Wind: NE 3 mph , 6 km/h
Temperature: 59°F , 15°C
Dew Point: 55°F , 13°C
Humidity: 88%
Barometer: 29.87 inHg , 1011.5 hPa
Summary: Mist
Clouds: Overcast
Visibility: 6 miles , 10 km
Cloud details: Overcast 1200 ft
2018/08/20 09:53 KOAK 200953Z 04003KT 6SM BR OVC012 15/13 A2987 RMK AO2 SLP115 T01500133 $
KSQL - San Carlos Airpo, California, USA
Distance from station: NW 21mi, 34km
Updated: Sun, 19-Aug-2018 10:48am CDT
NOT Current
Mist, Overcast
Mist, Overcast
 Wind from varies
Wind: varies 3 mph , 6 km/h
Temperature: 57°F , 14°C
Dew Point: 55°F , 13°C
Humidity: 94%
Barometer: 30.00 inHg , 1015.9 hPa
Summary: Mist
Clouds: Overcast
Visibility: 5 miles , 8 km
Cloud details: Overcast 800 ft
2018/08/19 15:48 KSQL 191548Z VRB03KT 5SM BR OVC008 14/13 A3000
 
KSFO - San Francisco, California, USA
Distance from station: NW 30mi, 49km
Updated: Mon, 20-Aug-2018 4:56am CDT
Few Clouds
Few Clouds
 Wind from SSW
Wind: SSW 5 mph , 7 km/h
Temperature: 55°F , 13°C
Dew Point: 52°F , 11°C
Humidity: 88%
Barometer: 29.87 inHg , 1011.5 hPa
Clouds: Few Clouds
Visibility: 10 miles , 16 km
Cloud details: Few Clouds 700 ft
2018/08/20 09:56 KSFO 200956Z 21004KT 10SM FEW007 13/11 A2987 RMK AO2 SLP115 T01330106
KE16 - San Martin, California, USA
Distance from station: ESE 27mi, 43km
Updated: Mon, 20-Aug-2018 5:05am CDT
Mist, Overcast
Mist, Overcast
 Wind from ESE
Wind: ESE 8 mph , 13 km/h
Temperature: 54°F , 12°C
Dew Point: 52°F , 11°C
Humidity: 94%
Barometer: 29.92 inHg , 1013.2 hPa
Summary: Mist
Clouds: Overcast
Visibility: 4 miles , 6 km
Cloud details: Overcast 300 ft
2018/08/20 10:05 KE16 201005Z AUTO 12007KT 4SM BR OVC003 12/11 A2992 RMK AO2
 
KWVI - Watsonville, California, USA
Distance from station: SSE 27mi, 44km
Updated: Mon, 20-Aug-2018 5:17am CDT
Mist, Overcast
Mist, Overcast
 Wind from calm
Wind: Calm
Temperature: 54°F , 12°C
Dew Point: 52°F , 11°C
Humidity: 94%
Barometer: 29.91 inHg , 1012.9 hPa
Summary: Mist
Clouds: Overcast
Visibility: 5 miles , 8 km
Cloud details: Overcast 500 ft
2018/08/20 10:17 KWVI 201017Z AUTO 00000KT 5SM BR OVC005 12/11 A2991 RMK AO2 T01220111 $
KHAF - Half Moon Bay, California, USA
Distance from station: WNW 31mi, 50km
Updated: Mon, 20-Aug-2018 5:15am CDT
Mist, Overcast
Mist, Overcast
 Wind from SE
Wind: SE 3 mph , 6 km/h
Temperature: 57°F , 14°C
Dew Point: 55°F , 13°C
Humidity: 94%
Barometer: 29.90 inHg , 1012.5 hPa
Summary: Mist
Clouds: Overcast
Visibility: 4 miles , 6 km
Cloud details: Overcast 600 ft
2018/08/20 10:15 KHAF 201015Z AUTO 14003KT 4SM BR OVC006 14/13 A2990 RMK AO2
 
KHWD - Hayward, California, USA
Distance from station: N 28mi, 44km
Updated: Mon, 20-Aug-2018 4:54am CDT
Haze, Overcast
Haze, Overcast
 Wind from calm
Wind: Calm
Temperature: 61°F , 16°C
Dew Point: 54°F , 12°C
Humidity: 77%
Barometer: 29.87 inHg , 1011.5 hPa
Summary: Haze
Clouds: Overcast
Visibility: 6 miles , 10 km
Cloud details: Overcast 1000 ft
2018/08/20 09:54 KHWD 200954Z AUTO 00000KT 6SM HZ OVC010 16/12 A2987 RMK AO2 SLP125 T01560122
KLVK - Livermore, California, USA
Distance from station: NNE 31mi, 51km
Updated: Mon, 20-Aug-2018 4:53am CDT
Haze, Smoke, Clear
Haze, Smoke, Clear
 Wind from NW
Wind: NW 6 mph , 9 km/h
Temperature: 57°F , 14°C
Dew Point: 52°F , 11°C
Humidity: 82%
Barometer: 29.85 inHg , 1010.8 hPa
Summary: Haze, Smoke
Clouds: Clear
Visibility: 6 miles , 10 km
2018/08/20 09:53 KLVK 200953Z AUTO 31005KT 6SM HZ FU CLR 14/11 A2985 RMK AO2 SLP105 T01390111